Time;durP1;ratioP1;P1;durP2;ratioP2;P2;SDS_P1;SDS_P2;PMS_P1;PMS_P2;Temp;Humidity;BMP_temperature;BMP_pressure;BME280_temperature;BME280_humidity;BME280_pressure;Samples;Min_cycle;Max_cycle;Signal;HPM_P1;HPM_P2
2022/05/20 00:02:00;;;;;;;7.07;1.58;;;;;;;11.85;81.15;100770.94;6224142;23;20015;-73
2022/05/20 00:04:26;;;;;;;17.60;2.00;;;;;;;11.86;80.99;100782.72;6228740;23;19999;-74
2022/05/20 00:06:51;;;;;;;4.35;1.08;;;;;;;11.80;81.41;100770.09;6254762;23;20012;-74
2022/05/20 00:09:17;;;;;;;5.10;1.40;;;;;;;11.75;81.76;100767.31;6226107;23;20008;-77
2022/05/20 00:11:42;;;;;;;7.10;1.38;;;;;;;11.73;82.25;100770.34;6230557;23;20308;-75
2022/05/20 00:14:08;;;;;;;6.15;1.45;;;;;;;11.71;83.16;100778.00;6227188;23;20011;-75
2022/05/20 00:16:35;;;;;;;6.43;1.60;;;;;;;11.68;82.81;100773.88;6227881;23;20011;-75
2022/05/20 00:19:10;;;;;;;7.70;1.60;;;;;;;11.66;83.21;100767.81;6228552;23;20008;-76
2022/05/20 00:21:36;;;;;;;8.07;1.65;;;;;;;11.66;84.23;100770.56;6228381;23;20323;-76
2022/05/20 00:24:03;;;;;;;8.07;1.50;;;;;;;11.61;83.77;100776.00;6226212;23;20384;-75
2022/05/20 00:26:28;;;;;;;12.13;2.03;;;;;;;11.64;84.07;100782.88;6225923;23;20007;-76
2022/05/20 00:28:55;;;;;;;7.15;1.35;;;;;;;11.64;83.84;100783.69;6227917;23;20051;-76
2022/05/20 00:31:23;;;;;;;10.07;1.88;;;;;;;11.60;84.27;100770.81;6253892;23;20028;-75
2022/05/20 00:33:49;;;;;;;11.38;1.88;;;;;;;11.64;84.48;100766.44;6227574;23;20444;-74
2022/05/20 00:36:14;;;;;;;5.40;1.27;;;;;;;11.60;84.56;100754.38;6223500;23;20065;-75
2022/05/20 00:38:40;;;;;;;8.23;1.20;;;;;;;11.61;84.03;100756.84;6253345;23;20316;-75
2022/05/20 00:41:07;;;;;;;8.63;1.88;;;;;;;11.61;83.99;100751.38;6224035;23;20035;-76
2022/05/20 00:43:35;;;;;;;6.22;1.25;;;;;;;11.66;84.74;100762.34;6225906;23;19997;-76
2022/05/20 00:46:07;;;;;;;7.45;1.70;;;;;;;11.63;84.82;100760.13;6228624;23;20000;-75
2022/05/20 00:48:36;;;;;;;7.75;1.15;;;;;;;11.61;84.88;100765.06;6228495;23;20035;-75
2022/05/20 00:51:08;;;;;;;4.75;1.20;;;;;;;11.61;84.74;100762.31;6226858;23;20004;-76
2022/05/20 00:53:48;;;;;;;5.25;1.73;;;;;;;11.53;85.18;100760.06;6252232;23;20000;-75
2022/05/20 00:56:22;;;;;;;8.02;1.40;;;;;;;11.55;84.87;100754.31;6251067;23;20138;-76
2022/05/20 00:58:49;;;;;;;11.43;1.80;;;;;;;11.52;85.65;100753.78;6227900;23;19996;-75
2022/05/20 01:01:15;;;;;;;7.40;1.65;;;;;;;11.51;85.76;100767.72;6226483;23;20015;-77
2022/05/20 01:03:42;;;;;;;10.95;1.98;;;;;;;11.51;85.97;100756.78;6223674;23;20022;-75
2022/05/20 01:06:09;;;;;;;8.05;1.75;;;;;;;11.51;85.70;100754.84;6225353;23;20023;-75
2022/05/20 01:08:37;;;;;;;6.35;1.20;;;;;;;11.51;85.61;100734.88;6201409;23;20083;-76
2022/05/20 01:11:06;;;;;;;8.75;1.73;;;;;;;11.50;86.55;100746.91;6252786;23;20078;-76
2022/05/20 01:13:33;;;;;;;7.47;2.25;;;;;;;11.47;86.40;100761.13;6227902;23;20042;-76
2022/05/20 01:16:03;;;;;;;10.77;1.70;;;;;;;11.48;86.45;100754.56;6252384;23;20015;-76
2022/05/20 01:18:33;;;;;;;13.73;2.72;;;;;;;11.47;87.35;100758.38;6252949;23;20004;-75
2022/05/20 01:20:58;;;;;;;9.85;2.13;;;;;;;11.41;87.41;100756.72;6225676;23;20004;-78
2022/05/20 01:23:27;;;;;;;10.25;1.77;;;;;;;11.43;87.32;100765.47;6227151;23;20022;-75
2022/05/20 01:25:57;;;;;;;14.68;2.13;;;;;;;11.39;88.18;100761.59;6225228;23;20008;-75
2022/05/20 01:28:24;;;;;;;12.05;2.38;;;;;;;11.35;87.67;100761.31;6253197;23;19992;-75
2022/05/20 01:30:53;;;;;;;7.07;1.50;;;;;;;11.35;88.37;100761.31;6224119;23;20011;-75
2022/05/20 01:33:23;;;;;;;6.93;1.40;;;;;;;11.34;88.02;100757.75;6225885;23;20010;-75
2022/05/20 01:35:49;;;;;;;10.32;2.17;;;;;;;11.37;87.62;100750.09;6246622;23;20057;-76
2022/05/20 01:38:14;;;;;;;13.25;2.70;;;;;;;11.32;88.23;100745.44;6226001;23;20023;-77
2022/05/20 01:40:47;;;;;;;10.05;1.80;;;;;;;11.34;87.53;100744.06;6200243;23;20005;-76
2022/05/20 01:43:25;;;;;;;11.70;1.92;;;;;;;11.34;88.01;100741.31;6225644;23;20008;-77
2022/05/20 01:46:01;;;;;;;12.60;3.30;;;;;;;11.35;88.46;100737.50;6225070;23;20004;-78
2022/05/20 01:48:37;;;;;;;13.15;2.90;;;;;;;11.30;88.55;100740.22;6226964;23;20000;-76
2022/05/20 01:51:08;;;;;;;14.38;3.03;;;;;;;11.32;88.85;100740.75;6227164;23;19996;-77
2022/05/20 01:53:50;;;;;;;11.05;2.45;;;;;;;11.21;88.70;100719.88;6226195;23;20000;-77
2022/05/20 01:56:21;;;;;;;9.23;2.40;;;;;;;11.18;88.45;100720.41;6226251;23;20057;-76
2022/05/20 01:58:57;;;;;;;11.55;2.47;;;;;;;11.19;88.89;100716.59;6255195;23;20465;-77
2022/05/20 02:01:33;;;;;;;11.05;2.45;;;;;;;11.28;88.37;100725.94;6227555;23;20019;-77
2022/05/20 02:04:12;;;;;;;6.15;2.13;;;;;;;11.24;88.07;100713.88;6226377;23;20061;-77
2022/05/20 02:06:45;;;;;;;11.20;2.53;;;;;;;11.27;88.27;100727.06;6241555;22;20013;-76
2022/05/20 02:09:44;;;;;;;12.02;2.45;;;;;;;11.27;88.66;100724.31;6195579;23;20028;-76
2022/05/20 02:12:17;;;;;;;8.73;2.53;;;;;;;11.25;88.26;100726.47;6168406;23;20015;-76
2022/05/20 02:15:25;;;;;;;3.58;1.67;;;;;;;11.18;88.44;100709.44;6197003;23;20220;-75
2022/05/20 02:17:54;;;;;;;9.25;2.10;;;;;;;11.30;87.85;100712.84;6174053;23;20099;-75
2022/05/20 02:20:32;;;;;;;9.63;1.98;;;;;;;11.27;88.55;100713.38;6222486;23;20001;-75
2022/05/20 02:23:04;;;;;;;7.57;2.45;;;;;;;11.26;87.93;100713.63;6195551;23;20004;-76
2022/05/20 02:25:34;;;;;;;6.65;2.17;;;;;;;11.26;87.82;100708.97;6221076;23;20007;-75
2022/05/20 02:28:11;;;;;;;6.35;2.15;;;;;;;11.25;88.17;100707.31;6216895;23;20076;-77
2022/05/20 02:30:37;;;;;;;10.45;3.25;;;;;;;11.28;88.48;100706.78;6195718;23;20004;-75
2022/05/20 02:33:12;;;;;;;11.70;2.60;;;;;;;11.13;88.21;100682.88;6171981;23;20016;-76
2022/05/20 02:35:40;;;;;;;12.90;2.65;;;;;;;11.22;88.40;100694.16;6220528;23;20035;-76
2022/05/20 02:38:20;;;;;;;11.30;2.97;;;;;;;11.21;88.51;100697.97;6195711;23;20008;-75
2022/05/20 02:40:49;;;;;;;7.07;2.00;;;;;;;11.21;88.38;100697.97;6224085;23;20004;-74
2022/05/20 02:43:15;;;;;;;2.95;1.80;;;;;;;11.18;88.45;100688.41;6193538;23;20004;-76
2022/05/20 02:45:43;;;;;;;6.90;2.80;;;;;;;11.24;88.77;100683.75;6222033;23;20108;-75
2022/05/20 02:48:08;;;;;;;10.88;2.65;;;;;;;11.25;88.74;100688.16;6193405;23;20028;-75
2022/05/20 02:50:34;;;;;;;9.68;3.22;;;;;;;11.20;88.30;100682.66;6169355;23;20019;-76
2022/05/20 02:53:00;;;;;;;13.27;3.63;;;;;;;11.14;88.65;100681.81;6192336;23;20009;-76
2022/05/20 02:55:26;;;;;;;11.80;2.40;;;;;;;11.20;89.14;100690.88;6218530;23;20093;-76
2022/05/20 02:57:51;;;;;;;7.40;2.28;;;;;;;11.18;88.70;100682.09;6170253;23;20015;-75
2022/05/20 03:05:45;;;;;;;3.42;1.52;;;;;;;11.22;87.57;100677.72;6199306;23;19991;-76
2022/05/20 03:08:11;;;;;;;2.15;1.35;;;;;;;11.26;87.80;100667.91;6191504;23;20374;-76
2022/05/20 03:10:37;;;;;;;3.92;1.40;;;;;;;11.29;87.93;100672.03;6193541;23;20001;-76
2022/05/20 03:13:06;;;;;;;5.10;1.90;;;;;;;11.29;87.75;100670.13;6220616;23;20004;-75
2022/05/20 03:15:33;;;;;;;4.30;2.10;;;;;;;11.34;87.40;100656.44;6191959;23;20419;-76
2022/05/20 03:17:59;;;;;;;7.88;1.98;;;;;;;11.28;87.55;100643.81;6171615;23;20072;-78
2022/05/20 03:20:25;;;;;;;6.05;2.35;;;;;;;11.30;87.60;100652.59;6193926;23;20046;-75
2022/05/20 03:22:50;;;;;;;9.45;2.10;;;;;;;11.31;87.66;100648.75;6193312;23;20083;-76
2022/05/20 03:25:25;;;;;;;4.55;1.90;;;;;;;11.30;87.49;100638.91;6191118;23;20055;-75
2022/05/20 03:27:51;;;;;;;7.10;2.17;;;;;;;11.26;87.54;100635.06;6221622;23;19996;-76
2022/05/20 03:30:17;;;;;;;5.20;1.65;;;;;;;11.22;87.79;100633.94;6167551;23;19993;-78
2022/05/20 03:32:43;;;;;;;7.57;2.13;;;;;;;11.15;87.66;100634.16;6170234;23;20457;-77
2022/05/20 03:35:09;;;;;;;6.43;2.63;;;;;;;11.16;87.89;100633.09;6170497;23;20008;-77
2022/05/20 03:37:34;;;;;;;11.57;3.65;;;;;;;11.16;88.08;100641.28;6195273;23;20009;-76
2022/05/20 03:40:00;;;;;;;7.03;2.65;;;;;;;11.17;88.68;100642.94;6223049;23;20008;-76
2022/05/20 03:42:26;;;;;;;11.38;3.30;;;;;;;11.15;88.58;100633.34;6196049;23;20023;-77
2022/05/20 03:44:52;;;;;;;15.63;3.72;;;;;;;11.16;89.08;100640.47;6171212;23;20067;-78
2022/05/20 03:47:18;;;;;;;6.57;3.35;;;;;;;11.12;89.02;100633.88;6217881;23;20005;-77
2022/05/20 03:49:44;;;;;;;4.97;2.45;;;;;;;11.12;88.70;100644.81;6170875;23;20005;-77
2022/05/20 03:52:10;;;;;;;7.63;2.40;;;;;;;11.13;89.13;100646.47;6195868;23;20012;-76
2022/05/20 03:54:36;;;;;;;12.30;3.10;;;;;;;11.18;88.51;100660.19;6194137;23;20331;-77
2022/05/20 03:57:03;;;;;;;7.85;2.70;;;;;;;11.17;88.40;100659.38;6198047;23;20092;-77
2022/05/20 03:59:29;;;;;;;6.47;2.78;;;;;;;11.24;88.23;100659.13;6170345;23;20008;-78
2022/05/20 04:01:58;;;;;;;5.93;2.50;;;;;;;11.25;88.76;100666.25;6223669;23;19984;-77
2022/05/20 04:04:31;;;;;;;5.00;2.50;;;;;;;11.26;88.61;100656.16;6169476;23;20018;-77
2022/05/20 04:06:58;;;;;;;11.65;3.10;;;;;;;11.26;88.71;100656.16;6222564;22;20013;-76
2022/05/20 04:09:24;;;;;;;6.60;2.75;;;;;;;11.28;88.45;100652.03;6170129;23;20351;-76
2022/05/20 04:11:54;;;;;;;10.57;2.80;;;;;;;11.34;88.42;100653.69;6196509;23;20005;-78
2022/05/20 04:14:20;;;;;;;13.13;3.38;;;;;;;11.34;88.21;100648.22;6194569;23;20391;-75
2022/05/20 04:16:45;;;;;;;9.43;2.95;;;;;;;11.33;88.68;100645.75;6194310;23;20067;-75
2022/05/20 04:19:11;;;;;;;10.73;3.28;;;;;;;11.32;88.56;100644.94;6196550;23;20463;-76
2022/05/20 04:21:38;;;;;;;9.35;3.20;;;;;;;11.28;88.39;100638.34;6192081;23;20424;-75
2022/05/20 04:24:05;;;;;;;5.57;2.70;;;;;;;11.26;88.85;100629.59;6147656;23;20043;-76
2022/05/20 04:26:30;;;;;;;5.82;2.13;;;;;;;11.31;88.76;100626.84;6194135;23;20012;-75
2022/05/20 04:28:56;;;;;;;5.20;2.35;;;;;;;11.32;88.23;100623.03;6170607;23;20009;-76
2022/05/20 04:31:21;;;;;;;6.95;3.15;;;;;;;11.27;88.25;100617.56;6172289;23;20032;-78
2022/05/20 04:33:47;;;;;;;7.85;3.30;;;;;;;11.30;88.28;100638.91;6146871;23;20013;-75
2022/05/20 04:36:12;;;;;;;12.98;3.85;;;;;;;11.30;88.76;100651.75;6220118;23;20046;-76
2022/05/20 04:38:38;;;;;;;15.30;4.10;;;;;;;11.29;88.82;100650.94;6168009;23;20003;-77
2022/05/20 04:49:16;;;;;;;;;;;;;;;11.37;89.06;100651.53;6218577;23;20051;-76
2022/05/20 04:51:41;;;;;;;12.13;3.55;;;;;;;11.37;88.62;100657.00;6167722;23;19954;-77
2022/05/20 04:56:53;;;;;;;9.05;2.13;;;;;;;11.41;88.88;100641.72;6218604;23;20014;-76
2022/05/20 04:59:20;;;;;;;14.10;3.25;;;;;;;11.46;88.45;100634.34;6223030;23;20032;-77
2022/05/20 05:01:46;;;;;;;10.65;3.40;;;;;;;11.56;88.59;100643.69;6191713;23;20016;-78
2022/05/20 05:04:12;;;;;;;6.68;2.50;;;;;;;11.61;88.33;100658.22;6196430;23;20039;-79
2022/05/20 05:06:37;;;;;;;13.95;3.25;;;;;;;11.68;87.94;100661.56;6205624;23;20024;-77
2022/05/20 05:09:03;;;;;;;12.65;4.40;;;;;;;11.74;87.72;100667.03;6224712;23;20026;-77
2022/05/20 05:11:29;;;;;;;12.65;3.85;;;;;;;11.74;87.84;100661.56;6252857;23;20430;-77
2022/05/20 05:13:54;;;;;;;16.40;3.30;;;;;;;11.83;87.73;100688.19;6227260;23;20062;-77
2022/05/20 05:16:20;;;;;;;10.80;3.67;;;;;;;11.81;87.50;100695.00;6199658;23;20019;-79
2022/05/20 05:18:45;;;;;;;11.75;3.75;;;;;;;11.76;87.55;100697.75;6198845;23;20008;-78
2022/05/20 05:21:15;;;;;;;15.90;4.57;;;;;;;11.92;87.44;100739.75;6222709;23;20004;-75
2022/05/20 05:23:44;;;;;;;21.25;4.68;;;;;;;11.90;87.77;100725.47;6198404;23;20011;-75
2022/05/20 05:26:10;;;;;;;12.52;5.20;;;;;;;11.84;87.50;100713.66;6200257;23;20311;-74
2022/05/20 05:28:40;;;;;;;9.88;3.80;;;;;;;11.91;88.04;100710.69;6223433;23;20000;-74
2022/05/20 05:31:06;;;;;;;11.18;3.83;;;;;;;11.90;87.44;100709.88;6199848;23;20394;-74
2022/05/20 05:33:31;;;;;;;10.10;3.92;;;;;;;11.97;87.07;100694.03;6223556;23;20016;-76
2022/05/20 05:35:57;;;;;;;8.32;3.72;;;;;;;12.06;86.93;100702.53;6223285;23;20330;-76
2022/05/20 05:38:23;;;;;;;13.02;4.25;;;;;;;12.08;87.34;100713.25;6201115;23;20019;-76
2022/05/20 05:40:49;;;;;;;12.68;3.97;;;;;;;12.03;86.77;100701.16;6226453;23;20079;-75
2022/05/20 05:43:15;;;;;;;15.80;4.97;;;;;;;12.04;86.76;100686.34;6250082;23;20007;-75
2022/05/20 05:45:41;;;;;;;10.27;3.67;;;;;;;12.08;87.23;100705.03;6251692;23;19996;-75
2022/05/20 05:48:08;;;;;;;19.15;4.03;;;;;;;12.13;86.82;100672.13;6226290;23;20004;-76
2022/05/20 05:50:37;;;;;;;7.45;3.47;;;;;;;12.25;86.33;100663.66;6252645;23;19997;-75
2022/05/20 05:53:10;;;;;;;9.55;3.60;;;;;;;12.42;86.24;100671.66;6224296;23;20008;-75
2022/05/20 05:55:35;;;;;;;10.70;3.47;;;;;;;12.56;85.15;100667.28;6224664;23;20011;-74
2022/05/20 05:58:01;;;;;;;7.40;2.50;;;;;;;12.72;85.14;100662.63;6199775;23;20004;-75
2022/05/20 06:00:27;;;;;;;9.90;3.08;;;;;;;12.88;84.13;100677.16;6226657;23;20008;-74
2022/05/20 06:02:53;;;;;;;14.30;3.03;;;;;;;12.96;83.65;100681.25;6251822;23;20028;-76
2022/05/20 06:05:18;;;;;;;5.80;3.13;;;;;;;13.05;83.61;100680.44;6226826;23;20011;-77
2022/05/20 06:07:44;;;;;;;8.75;2.58;;;;;;;13.19;82.41;100679.88;6200561;23;20027;-75
2022/05/20 06:10:10;;;;;;;5.53;2.53;;;;;;;13.19;82.52;100685.34;6252489;23;20012;-76
2022/05/20 06:12:36;;;;;;;9.90;2.78;;;;;;;13.26;82.53;100694.13;6226356;23;20089;-77
2022/05/20 06:15:07;;;;;;;8.23;2.75;;;;;;;13.29;82.14;100682.59;6225614;23;20011;-79
2022/05/20 06:17:33;;;;;;;13.82;3.08;;;;;;;13.24;80.86;100688.06;6224429;23;20056;-78
2022/05/20 06:20:00;;;;;;;10.15;3.08;;;;;;;13.16;81.21;100699.66;6221199;23;20004;-72
2022/05/20 06:22:26;;;;;;;8.93;2.60;;;;;;;13.06;81.12;100698.53;6246634;23;20008;-76
2022/05/20 06:24:52;;;;;;;14.30;2.95;;;;;;;12.97;81.55;100705.69;6199108;23;20004;-76
2022/05/20 06:27:17;;;;;;;9.10;3.35;;;;;;;12.91;81.47;100706.78;6253563;23;20003;-78
2022/05/20 06:29:47;;;;;;;8.77;3.10;;;;;;;12.87;82.31;100705.69;6198534;23;20016;-76
2022/05/20 06:32:12;;;;;;;10.10;4.45;;;;;;;12.82;82.39;100706.53;6200177;23;20067;-75
2022/05/20 06:40:09;;;;;;;7.55;3.45;;;;;;;12.92;81.51;100714.75;6252877;23;20066;-77
2022/05/20 06:42:35;;;;;;;12.75;4.80;;;;;;;12.88;82.34;100707.34;6251540;23;20000;-77
2022/05/20 06:45:00;;;;;;;13.05;3.65;;;;;;;12.88;82.34;100718.34;6224416;23;20011;-78
2022/05/20 06:47:26;;;;;;;8.38;3.50;;;;;;;12.87;82.05;100711.19;6225658;23;20318;-79
2022/05/20 06:49:51;;;;;;;10.38;3.70;;;;;;;12.93;82.64;100715.56;6179484;23;20011;-78
2022/05/20 06:52:17;;;;;;;7.10;3.58;;;;;;;13.02;82.81;100719.41;6229459;23;20083;-80
2022/05/20 06:54:46;;;;;;;9.35;3.35;;;;;;;13.13;82.07;100708.41;6202426;23;20035;-78
2022/05/20 06:57:20;;;;;;;9.55;2.85;;;;;;;13.25;81.31;100700.72;6202721;23;20501;-80
2022/05/20 06:59:45;;;;;;;13.57;2.88;;;;;;;13.28;80.13;100706.47;6228227;23;20024;-77
2022/05/20 07:02:11;;;;;;;9.38;2.13;;;;;;;13.17;78.11;100704.00;6176135;23;20008;-75
2022/05/20 07:04:37;;;;;;;7.20;2.28;;;;;;;13.13;78.70;100700.16;6225399;23;20046;-76
2022/05/20 07:07:04;;;;;;;7.35;2.45;;;;;;;13.12;79.35;100701.28;6252073;22;20083;-78
2022/05/20 07:09:33;;;;;;;8.40;1.90;;;;;;;13.16;78.26;100691.41;6194859;23;20004;-77
2022/05/20 07:11:59;;;;;;;10.25;1.10;;;;;;;13.17;77.94;100676.56;6175916;23;20020;-77
2022/05/20 07:15:14;;;;;;;;;;;;;;;;;;;;;
2022/05/20 07:17:49;;;;;;;3.53;1.52;;;;;;;13.05;75.06;100663.97;6253645;23;20035;-76
2022/05/20 07:20:52;;;;;;;;;;;;;;;;;;;;;
2022/05/20 07:23:39;;;;;;;3.17;0.73;;;;;;;12.64;72.56;100644.75;6252613;23;20016;-76
2022/05/20 07:29:16;;;;;;;8.02;0.70;;;;;;;12.62;71.44;100646.97;6191695;23;20016;-77
2022/05/20 07:32:43;;;;;;;2.50;0.70;;;;;;;12.78;72.62;100668.94;6227849;23;20004;-77
2022/05/20 07:35:41;;;;;;;7.97;1.35;;;;;;;12.65;71.53;100642.88;6049003;23;20082;-78
2022/05/20 07:38:33;;;;;;;3.03;0.90;;;;;;;12.62;72.33;100627.75;6072742;23;20014;-77
2022/05/20 07:41:38;;;;;;;;;;;;;;;;;;;;;
2022/05/20 07:44:44;;;;;;;;;;;;;;;;;;;;;
2022/05/20 07:47:18;;;;;;;1.05;0.50;;;;;;;12.77;72.69;100623.38;6224176;23;20032;-74
2022/05/20 07:50:24;;;;;;;2.92;0.70;;;;;;;12.81;72.78;100624.47;6222162;23;20008;-73
2022/05/20 07:55:40;;;;;;;1.77;0.55;;;;;;;12.67;72.67;100638.72;6250857;23;20038;-72
2022/05/20 07:58:19;;;;;;;2.95;1.02;;;;;;;12.54;73.87;100644.75;6221296;23;20000;-73
2022/05/20 08:00:50;;;;;;;5.25;0.85;;;;;;;12.44;73.45;100653.00;6250532;23;20008;-74
2022/05/20 08:04:52;;;;;;;3.60;1.05;;;;;;;12.43;73.84;100659.59;6249645;23;20034;-74
2022/05/20 08:06:04;;;;;;;2.63;0.47;;;;;;;12.46;71.89;100650.81;6247175;23;20486;-74
2022/05/20 08:08:32;;;;;;;0.88;0.50;;;;;;;12.52;72.13;100655.19;6221147;23;20031;-77
2022/05/20 08:10:57;;;;;;;1.00;0.50;;;;;;;12.60;70.71;100679.34;6220953;23;20064;-74
2022/05/20 08:13:23;;;;;;;3.65;0.57;;;;;;;12.41;71.43;100662.56;6170952;23;20050;-74
2022/05/20 08:16:07;;;;;;;;;;;;;;;;;;;;;
2022/05/20 08:18:33;;;;;;;1.58;0.40;;;;;;;12.06;73.25;100653.19;6247238;23;20086;-74
2022/05/20 08:21:08;;;;;;;5.25;0.80;;;;;;;11.92;74.17;100671.22;6222560;23;20050;-75
2022/05/20 08:24:00;;;;;;;;;;;;;;;11.75;74.17;100674.19;6220574;23;20030;-74
2022/05/20 08:26:35;;;;;;;;;;;;;;;;;;;;;
2022/05/20 08:29:44;;;;;;;1.52;0.50;;;;;;;11.54;74.60;100649.44;6224154;23;20027;-74
2022/05/20 08:32:10;;;;;;;2.30;0.60;;;;;;;11.66;75.04;100660.97;6220315;23;20318;-74
2022/05/20 08:34:38;;;;;;;2.67;0.50;;;;;;;11.74;75.07;100664.28;6223855;23;20008;-73
2022/05/20 08:40:07;;;;;;;3.22;0.50;;;;;;;11.90;75.02;100657.81;6227362;23;20008;-74
2022/05/20 08:42:33;;;;;;;3.45;1.08;;;;;;;11.99;74.50;100664.44;6223037;23;20024;-74
2022/05/20 08:45:02;;;;;;;1.80;0.52;;;;;;;12.12;74.42;100667.72;6197527;23;20031;-74
2022/05/20 08:47:45;;;;;;;2.08;0.60;;;;;;;12.18;74.05;100670.22;6197677;23;20014;-74
2022/05/20 08:50:32;;;;;;;1.90;0.43;;;;;;;12.52;73.42;100677.13;6221752;23;20734;-74
2022/05/20 08:52:58;;;;;;;1.05;0.50;;;;;;;12.60;73.53;100662.06;6249914;23;20091;-74
2022/05/20 08:55:34;;;;;;;3.35;0.50;;;;;;;12.70;73.37;100665.63;6222680;23;20015;-72
2022/05/20 08:58:11;;;;;;;2.67;0.57;;;;;;;12.85;73.67;100674.94;6245733;23;20081;-73
2022/05/20 09:00:37;;;;;;;2.35;0.60;;;;;;;12.97;73.36;100660.97;6219218;23;20091;-72
2022/05/20 09:03:06;;;;;;;0.88;0.20;;;;;;;13.14;73.01;100661.47;6220524;23;20050;-72
2022/05/20 09:05:34;;;;;;;1.88;0.60;;;;;;;13.30;73.27;100670.47;6172481;23;20371;-72
2022/05/20 09:08:25;;;;;;;2.63;0.63;;;;;;;13.49;73.37;100678.16;6248262;23;20086;-73
2022/05/20 09:10:59;;;;;;;3.17;0.63;;;;;;;13.46;71.92;100656.75;6222104;23;20054;-74
2022/05/20 09:16:34;;;;;;;1.60;0.60;;;;;;;13.56;71.87;100662.22;6248814;23;20036;-73
2022/05/20 09:19:25;;;;;;;2.58;0.95;;;;;;;13.56;72.21;100664.97;6220589;23;20000;-73
2022/05/20 09:22:12;;;;;;;0.98;0.50;;;;;;;13.48;72.28;100671.00;6247743;23;20000;-72
2022/05/20 09:24:53;;;;;;;1.08;0.50;;;;;;;13.30;72.63;100665.00;6219666;23;20060;-72
2022/05/20 09:27:51;;;;;;;3.15;0.57;;;;;;;13.02;73.04;100658.19;6245412;23;20008;-72
2022/05/20 09:30:23;;;;;;;2.83;0.85;;;;;;;12.98;73.57;100674.41;6203812;23;20004;-73
2022/05/20 09:33:23;;;;;;;2.38;0.70;;;;;;;12.72;74.36;100644.22;6220998;23;20011;-73
2022/05/20 09:36:16;;;;;;;1.65;0.60;;;;;;;12.82;74.92;100670.00;6242840;23;20004;-74
2022/05/20 09:38:51;;;;;;;2.10;0.55;;;;;;;12.74;75.34;100663.97;6220519;23;20473;-72
2022/05/20 09:41:21;;;;;;;2.42;0.80;;;;;;;12.72;75.51;100654.38;6223783;23;20095;-72
2022/05/20 09:44:00;;;;;;;3.30;0.73;;;;;;;12.75;74.91;100653.84;6248348;23;20066;-74
2022/05/20 09:46:42;;;;;;;2.70;0.60;;;;;;;12.80;75.36;100663.97;6217559;23;20004;-74
2022/05/20 09:49:25;;;;;;;2.28;0.57;;;;;;;12.61;75.26;100658.22;6220278;23;20010;-73
2022/05/20 09:52:05;;;;;;;2.38;0.50;;;;;;;12.65;75.62;100671.09;6220540;23;20014;-74
2022/05/20 09:54:51;;;;;;;3.15;0.70;;;;;;;12.53;76.44;100652.19;6248726;23;20345;-73
2022/05/20 09:57:19;;;;;;;2.28;0.70;;;;;;;12.51;77.17;100661.78;6248311;23;20000;-73
2022/05/20 10:03:25;;;;;;;3.83;0.70;;;;;;;13.06;76.23;100654.63;6230435;23;20008;-74
2022/05/20 10:06:09;;;;;;;7.90;1.00;;;;;;;13.44;75.61;100660.59;6220534;22;20066;-73
2022/05/20 10:08:53;;;;;;;4.07;1.00;;;;;;;13.80;74.46;100651.41;6219657;23;20004;-72
2022/05/20 10:11:35;;;;;;;3.05;0.60;;;;;;;14.02;73.27;100639.19;6246967;23;20004;-72
2022/05/20 10:14:13;;;;;;;2.20;0.65;;;;;;;14.09;71.50;100632.28;6220881;23;20027;-73
2022/05/20 10:17:06;;;;;;;5.03;0.70;;;;;;;14.06;70.96;100630.09;6218617;23;20062;-74
2022/05/20 10:20:05;;;;;;;;;;;;;;;;;;;;;
2022/05/20 10:22:43;;;;;;;1.08;0.40;;;;;;;14.29;70.50;100636.00;6247901;23;20071;-74
2022/05/20 10:25:09;;;;;;;1.20;0.60;;;;;;;14.59;69.08;100640.44;6219641;23;19996;-75
2022/05/20 10:28:03;;;;;;;1.02;0.60;;;;;;;15.09;68.33;100631.22;6249985;23;20026;-72
2022/05/20 10:33:58;;;;;;;3.58;0.50;;;;;;;16.90;62.33;100641.44;6096730;23;20124;-74
2022/05/20 10:36:39;;;;;;;2.55;0.75;;;;;;;17.38;59.52;100632.78;6072470;23;20019;-73
2022/05/20 10:39:35;;;;;;;5.15;0.90;;;;;;;17.79;57.81;100637.47;6183277;23;20331;-73
2022/05/20 10:42:31;;;;;;;3.83;0.70;;;;;;;18.86;55.60;100632.53;6221230;23;20392;-73
2022/05/20 10:48:58;;;;;;;5.40;0.68;;;;;;;20.52;49.60;100604.38;6247022;23;20092;-74
2022/05/20 10:52:19;;;;;;;;;;;;;;;;;;;;;
2022/05/20 10:55:20;;;;;;;1.75;0.60;;;;;;;23.27;45.46;100608.25;6247052;23;20056;-75
2022/05/20 10:57:56;;;;;;;3.13;0.65;;;;;;;25.89;38.55;100623.16;6176562;23;20012;-76
2022/05/20 11:00:30;;;;;;;1.02;0.50;;;;;;;26.16;37.88;100614.94;6225093;23;20000;-78
2022/05/20 11:03:31;;;;;;;1.60;0.50;;;;;;;27.88;34.83;100610.78;6227448;23;20000;-78
2022/05/20 11:06:35;;;;;;;1.65;0.60;;;;;;;31.72;31.34;100627.75;6225299;22;20012;-77
2022/05/20 11:09:15;;;;;;;2.08;0.50;;;;;;;34.10;26.06;100617.69;6226097;23;20003;-78
2022/05/20 11:11:55;;;;;;;2.53;0.50;;;;;;;36.46;24.43;100619.88;6227233;23;20000;-78
2022/05/20 11:14:57;;;;;;;1.17;0.80;;;;;;;32.86;25.38;100602.25;6227191;23;20015;-78
2022/05/20 11:18:01;;;;;;;1.02;0.50;;;;;;;35.11;24.92;100621.97;6251510;23;20004;-79
2022/05/20 11:21:11;;;;;;;0.93;0.50;;;;;;;36.85;20.00;100597.44;6227681;23;20601;-77
2022/05/20 11:23:43;;;;;;;1.05;0.52;;;;;;;38.04;19.15;100628.53;6211734;23;20000;-77
2022/05/20 11:26:32;;;;;;;2.03;0.70;;;;;;;38.55;17.88;100613.59;6227700;23;20004;-74
2022/05/20 11:29:16;;;;;;;;;;;;;;;;;;;;;
2022/05/20 11:31:57;;;;;;;1.50;0.40;;;;;;;38.99;18.11;100619.56;6253484;23;20034;-77
2022/05/20 11:35:00;;;;;;;0.95;0.40;;;;;;;35.84;19.96;100608.13;6226099;23;20422;-77
2022/05/20 11:37:45;;;;;;;3.20;0.57;;;;;;;35.92;20.11;100615.28;6254264;23;20011;-76
2022/05/20 11:40:29;;;;;;;2.00;0.60;;;;;;;35.02;21.39;100610.34;6253005;23;20000;-77
2022/05/20 11:43:27;;;;;;;1.30;0.55;;;;;;;35.33;20.96;100624.50;6227542;23;20063;-77
2022/05/20 11:46:23;;;;;;;0.93;0.40;;;;;;;35.25;20.67;100630.28;6251302;23;20449;-75
2022/05/20 12:06:12;;;;;;;2.00;0.57;;;;;;;33.63;22.47;100608.88;6252774;22;20406;-76
2022/05/20 12:08:47;;;;;;;;;;;;;;;;;;;;;
2022/05/20 12:11:35;;;;;;;2.65;0.57;;;;;;;35.07;21.56;100622.03;6254093;23;20019;-75
2022/05/20 12:14:48;;;;;;;1.90;0.40;;;;;;;34.66;21.54;100622.25;6228349;23;20055;-77
2022/05/20 12:17:31;;;;;;;0.98;0.40;;;;;;;34.57;21.02;100615.06;6193381;23;20039;-77
2022/05/20 12:26:22;;;;;;;2.00;0.47;;;;;;;32.01;25.08;100602.25;6248896;23;20004;-76
2022/05/20 12:29:01;;;;;;;;;;;;;;;;;;;;;
2022/05/20 12:31:32;;;;;;;1.20;0.40;;;;;;;30.77;24.88;100623.25;6250411;23;20042;-78
2022/05/20 12:34:10;;;;;;;1.48;0.93;;;;;;;27.43;29.65;100604.91;6223468;23;20008;-77
2022/05/20 12:47:27;;;;;;;2.80;0.60;;;;;;;20.09;46.00;100610.75;6252703;23;20019;-76
2022/05/20 12:50:05;;;;;;;3.13;0.70;;;;;;;19.64;46.63;100614.56;6253060;23;20073;-78
2022/05/20 12:53:11;;;;;;;3.10;0.77;;;;;;;19.49;46.67;100568.69;6227572;23;20008;-76
2022/05/20 12:55:53;;;;;;;2.72;0.57;;;;;;;20.48;46.00;100598.66;6225235;23;20004;-77
2022/05/20 19:06:52;;;;;;;;;;;;;;;14.95;69.71;100639.31;6134121;23;20013;-75
2022/05/20 22:39:28;;;;;;;16.95;1.83;;;;;;;10.35;78.07;100817.25;6263461;23;20026;-68
2022/05/20 22:41:59;;;;;;;5.40;1.42;;;;;;;10.42;77.68;100823.38;6244330;23;20016;-71
2022/05/20 22:44:27;;;;;;;8.70;1.40;;;;;;;10.51;77.85;100837.41;6209264;23;20008;-71
2022/05/20 22:46:56;;;;;;;4.30;1.08;;;;;;;10.45;77.36;100849.38;6241067;23;20067;-68
2022/05/20 22:49:22;;;;;;;8.55;1.05;;;;;;;10.52;77.47;100860.13;6239091;23;20414;-70
2022/05/20 22:51:47;;;;;;;7.90;0.80;;;;;;;10.48;77.99;100857.06;6229715;23;20031;-70
2022/05/20 22:54:13;;;;;;;4.85;0.85;;;;;;;10.45;77.69;100855.69;6230373;23;20019;-70
2022/05/20 22:56:39;;;;;;;7.97;1.30;;;;;;;10.37;77.80;100849.84;6229985;23;20004;-72
2022/05/20 22:59:05;;;;;;;7.72;1.13;;;;;;;10.37;78.60;100853.38;6256289;23;20035;-72
2022/05/20 23:01:37;;;;;;;10.65;1.20;;;;;;;10.35;78.15;100849.25;6257126;23;20004;-70
2022/05/20 23:04:06;;;;;;;7.20;1.10;;;;;;;10.29;78.89;100851.91;6227908;23;20000;-71
2022/05/20 23:06:32;;;;;;;8.13;1.17;;;;;;;10.27;78.93;100847.75;6228071;23;20063;-72
2022/05/20 23:08:58;;;;;;;3.75;0.90;;;;;;;10.18;78.89;100844.66;6204548;23;20020;-71